createdAt,value
2023-01-06T00:01:48.268Z,99.90
2023-01-06T00:04:18.842Z,99.90
2023-01-06T00:06:50.013Z,99.90
2023-01-06T00:09:24.325Z,99.90
2023-01-06T00:11:55.518Z,99.90
2023-01-06T00:14:26.669Z,99.90
2023-01-06T00:17:00.804Z,99.90
2023-01-06T00:19:32.186Z,99.60
2023-01-06T00:22:03.496Z,99.70
2023-01-06T00:24:37.040Z,99.50
2023-01-06T00:27:08.393Z,99.70
2023-01-06T00:29:39.736Z,99.80
2023-01-06T00:32:11.636Z,99.70
2023-01-06T00:34:42.921Z,99.90
2023-01-06T00:37:14.238Z,99.90
2023-01-06T00:39:47.714Z,99.80
2023-01-06T00:42:19.284Z,99.80
2023-01-06T00:44:50.682Z,99.90
2023-01-06T00:47:22.280Z,99.90
2023-01-06T00:49:53.927Z,99.90
2023-01-06T00:52:25.175Z,99.90
2023-01-06T00:54:58.788Z,99.90
2023-01-06T00:57:30.496Z,99.90
2023-01-06T01:00:01.711Z,99.90
2023-01-06T01:02:33.341Z,99.90
2023-01-06T01:05:04.995Z,99.90
2023-01-06T01:07:37.106Z,99.90
2023-01-06T01:10:12.944Z,99.90
2023-01-06T01:12:44.188Z,99.90
2023-01-06T01:15:15.214Z,99.90
2023-01-06T01:17:46.485Z,99.90
2023-01-06T01:20:16.942Z,99.90
2023-01-06T01:22:48.953Z,99.90
2023-01-06T01:25:22.420Z,99.90
2023-01-06T01:27:53.527Z,99.90
2023-01-06T01:30:25.413Z,99.90
2023-01-06T01:32:56.925Z,99.90
2023-01-06T01:35:30.050Z,99.90
2023-01-06T01:38:01.593Z,99.90
2023-01-06T01:40:35.032Z,99.90
2023-01-06T01:43:06.237Z,99.90
2023-01-06T01:45:36.728Z,99.90
2023-01-06T01:48:10.160Z,99.90
2023-01-06T01:50:45.567Z,99.90
2023-01-06T01:53:25.527Z,99.90
2023-01-06T01:56:02.012Z,99.90
2023-01-06T01:58:41.618Z,99.90
2023-01-06T02:01:15.183Z,99.90
2023-01-06T02:03:47.321Z,99.90
2023-01-06T02:06:23.912Z,99.90
2023-01-06T02:09:02.148Z,99.90
2023-01-06T02:11:38.584Z,99.90
2023-01-06T02:14:15.997Z,99.90
2023-01-06T02:17:08.553Z,99.90
2023-01-06T02:20:05.552Z,99.90
2023-01-06T02:23:10.863Z,99.90
2023-01-06T02:26:13.001Z,99.90
2023-01-06T02:29:10.132Z,99.90
2023-01-06T02:32:11.117Z,99.90
2023-01-06T02:34:51.498Z,99.90
2023-01-06T02:37:36.729Z,99.90
2023-01-06T02:40:27.348Z,99.90
2023-01-06T02:43:13.366Z,99.90
2023-01-06T02:45:52.844Z,99.90
2023-01-06T02:48:36.423Z,99.90
2023-01-06T02:51:12.134Z,99.90
2023-01-06T02:53:48.781Z,99.90
2023-01-06T02:56:26.703Z,99.90
2023-01-06T02:59:02.505Z,99.90
2023-01-06T03:01:37.018Z,99.90
2023-01-06T03:04:17.922Z,99.90
2023-01-06T03:06:53.674Z,99.90
2023-01-06T03:09:31.299Z,99.90
2023-01-06T03:12:04.635Z,99.90
2023-01-06T03:14:41.821Z,99.90
2023-01-06T03:17:14.896Z,99.90
2023-01-06T03:19:49.800Z,99.90
2023-01-06T03:22:21.481Z,99.90
2023-01-06T03:24:53.867Z,99.90
2023-01-06T03:27:29.773Z,99.90
2023-01-06T03:30:01.564Z,99.90
2023-01-06T03:32:41.318Z,99.90
2023-01-06T03:35:28.514Z,99.90
2023-01-06T03:38:11.587Z,99.90
2023-01-06T03:40:47.066Z,99.90
2023-01-06T03:43:25.925Z,99.90
2023-01-06T03:46:05.859Z,99.90
2023-01-06T03:48:55.812Z,99.90
2023-01-06T03:51:39.943Z,99.90
2023-01-06T03:54:23.537Z,99.90
2023-01-06T03:56:59.140Z,99.90
2023-01-06T03:59:33.567Z,99.90
2023-01-06T04:02:06.083Z,99.90
2023-01-06T04:04:37.458Z,99.90
2023-01-06T04:07:11.185Z,99.90
2023-01-06T04:09:45.022Z,99.90
2023-01-06T04:12:29.414Z,99.90
2023-01-06T04:15:00.288Z,99.90
2023-01-06T04:17:31.473Z,99.90
2023-01-06T04:20:03.019Z,99.90
2023-01-06T04:22:37.889Z,99.90
2023-01-06T04:25:10.179Z,99.90
2023-01-06T04:27:44.019Z,99.90
2023-01-06T04:30:16.588Z,99.90
2023-01-06T04:32:48.087Z,99.90
2023-01-06T04:35:19.767Z,99.60
2023-01-06T04:37:53.693Z,99.40
2023-01-06T04:40:25.534Z,99.50
2023-01-06T04:43:13.584Z,99.30
2023-01-06T04:45:45.758Z,99.30
2023-01-06T04:48:17.588Z,99.00
2023-01-06T04:50:48.541Z,98.90
2023-01-06T04:53:22.392Z,99.10
2023-01-06T04:55:53.207Z,98.90
2023-01-06T04:58:24.316Z,98.70
2023-01-06T05:00:55.104Z,99.00
2023-01-06T05:03:26.432Z,98.50
2023-01-06T05:05:57.291Z,98.50
2023-01-06T05:08:31.234Z,98.50
2023-01-06T05:11:05.775Z,98.60
2023-01-06T05:13:37.154Z,98.70
2023-01-06T05:16:10.494Z,98.30
2023-01-06T05:18:41.823Z,98.50
2023-01-06T05:21:13.032Z,98.60
2023-01-06T05:23:46.709Z,98.50
2023-01-06T05:26:21.258Z,98.60
2023-01-06T05:28:52.433Z,98.30
2023-01-06T05:31:22.913Z,98.00
2023-01-06T05:33:54.927Z,98.10
2023-01-06T05:36:25.761Z,98.10
2023-01-06T05:38:59.726Z,98.20
2023-01-06T05:41:31.320Z,98.00
2023-01-06T05:44:02.445Z,97.90
2023-01-06T05:46:32.943Z,97.60
2023-01-06T05:49:04.287Z,97.70
2023-01-06T05:51:35.899Z,97.70
2023-01-06T05:54:11.617Z,97.90
2023-01-06T05:56:42.551Z,97.50
2023-01-06T05:59:13.682Z,97.50
2023-01-06T06:01:44.732Z,97.40
2023-01-06T06:04:16.593Z,96.90
2023-01-06T06:06:47.676Z,97.20
2023-01-06T06:09:21.488Z,97.20
2023-01-06T06:11:52.339Z,97.20
2023-01-06T06:14:23.455Z,96.80
2023-01-06T06:16:53.856Z,96.50
2023-01-06T06:19:24.953Z,96.40
2023-01-06T06:21:55.674Z,96.00
2023-01-06T06:24:30.332Z,94.80
2023-01-06T06:27:01.765Z,96.10
2023-01-06T06:29:33.163Z,96.10
2023-01-06T06:32:04.182Z,95.80
2023-01-06T06:34:35.286Z,95.60
2023-01-06T06:37:06.484Z,96.00
2023-01-06T06:39:41.163Z,95.90
2023-01-06T06:42:12.647Z,95.70
2023-01-06T06:44:44.163Z,95.80
2023-01-06T06:47:16.074Z,96.00
2023-01-06T06:49:47.651Z,95.70
2023-01-06T06:52:20.072Z,95.50
2023-01-06T06:54:54.039Z,95.70
2023-01-06T06:57:25.193Z,95.30
2023-01-06T06:59:56.704Z,95.00
2023-01-06T07:02:28.274Z,94.90
2023-01-06T07:04:59.952Z,94.70
2023-01-06T07:07:31.655Z,95.10
2023-01-06T07:10:06.609Z,94.80
2023-01-06T07:12:37.431Z,95.10
2023-01-06T07:15:11.300Z,94.00
2023-01-06T07:17:43.669Z,94.60
2023-01-06T07:20:15.175Z,94.90
2023-01-06T07:22:46.602Z,94.30
2023-01-06T07:25:20.568Z,94.50
2023-01-06T07:27:55.936Z,95.00
2023-01-06T07:30:28.372Z,95.10
2023-01-06T07:32:59.153Z,95.00
2023-01-06T07:35:30.813Z,95.30
2023-01-06T07:38:06.767Z,94.90
2023-01-06T07:40:41.531Z,95.50
2023-01-06T07:43:14.240Z,95.00
2023-01-06T07:45:46.451Z,95.10
2023-01-06T07:48:17.731Z,94.80
2023-01-06T07:50:49.040Z,94.50
2023-01-06T07:53:20.682Z,95.10
2023-01-06T07:55:58.425Z,95.00
2023-01-06T07:58:29.551Z,94.80
2023-01-06T08:01:01.085Z,95.00
2023-01-06T08:03:32.634Z,95.40
2023-01-06T08:06:08.421Z,95.20
2023-01-06T08:08:40.678Z,95.10
2023-01-06T08:11:16.102Z,95.00
2023-01-06T08:13:46.971Z,95.00
2023-01-06T08:16:20.988Z,95.00
2023-01-06T08:18:52.816Z,95.20
2023-01-06T08:21:24.318Z,95.20
2023-01-06T08:23:55.803Z,95.10
2023-01-06T08:26:29.899Z,94.70
2023-01-06T08:29:01.368Z,94.10
2023-01-06T08:31:32.905Z,94.70
2023-01-06T08:34:04.365Z,94.70
2023-01-06T08:36:35.550Z,94.90
2023-01-06T08:39:06.753Z,94.70
2023-01-06T08:41:40.915Z,94.20
2023-01-06T08:44:12.009Z,94.30
2023-01-06T08:46:43.236Z,94.50
2023-01-06T08:49:14.510Z,94.50
2023-01-06T08:51:46.020Z,94.30
2023-01-06T08:54:17.566Z,94.40
2023-01-06T08:56:51.423Z,94.50
2023-01-06T08:59:23.478Z,94.10
2023-01-06T09:01:55.462Z,93.70
2023-01-06T09:04:27.036Z,93.90
2023-01-06T09:06:59.287Z,93.90
2023-01-06T09:09:31.011Z,93.80
2023-01-06T09:12:07.363Z,94.00
2023-01-06T09:14:38.900Z,93.90
2023-01-06T09:17:10.030Z,94.00
2023-01-06T09:19:40.834Z,93.90
2023-01-06T09:22:12.132Z,93.80
2023-01-06T09:24:42.876Z,93.50
2023-01-06T09:27:16.846Z,93.60
2023-01-06T09:29:47.787Z,93.70
2023-01-06T09:32:19.248Z,93.20
2023-01-06T09:34:50.084Z,93.20
2023-01-06T09:37:21.279Z,92.90
2023-01-06T09:39:51.665Z,93.20
2023-01-06T09:42:40.886Z,92.50
2023-01-06T09:45:24.207Z,93.00
2023-01-06T09:48:00.330Z,92.90
2023-01-06T09:50:37.384Z,92.70
2023-01-06T09:53:14.823Z,93.10
2023-01-06T09:55:48.470Z,93.30
2023-01-06T09:58:26.127Z,93.40
2023-01-06T10:00:58.912Z,93.40
2023-01-06T10:03:31.635Z,93.30
2023-01-06T10:06:12.815Z,93.50
2023-01-06T10:08:53.880Z,92.90
2023-01-06T10:11:30.362Z,92.70
2023-01-06T10:14:14.198Z,93.00
2023-01-06T10:17:01.771Z,92.60
2023-01-06T10:19:46.000Z,92.70
2023-01-06T10:22:21.966Z,92.80
2023-01-06T10:24:58.346Z,92.60
2023-01-06T10:27:35.340Z,92.30
2023-01-06T10:30:20.710Z,92.10
2023-01-06T10:32:53.623Z,92.70
2023-01-06T10:35:27.879Z,92.50
2023-01-06T10:38:00.408Z,92.40
2023-01-06T10:40:33.473Z,92.70
2023-01-06T10:43:07.004Z,92.50
2023-01-06T10:45:43.973Z,92.60
2023-01-06T10:48:16.524Z,92.30
2023-01-06T10:50:50.162Z,92.60
2023-01-06T10:53:21.183Z,92.40
2023-01-06T10:55:56.159Z,92.30
2023-01-06T10:58:37.138Z,92.60
2023-01-06T11:01:15.932Z,92.70
2023-01-06T11:03:48.982Z,92.60
2023-01-06T11:06:29.001Z,92.60
2023-01-06T11:09:01.364Z,92.80
2023-01-06T11:11:32.534Z,92.70
2023-01-06T11:14:06.568Z,92.40
2023-01-06T11:16:40.686Z,92.20
2023-01-06T11:19:26.813Z,92.00
2023-01-06T11:21:58.144Z,91.60
2023-01-06T11:24:30.580Z,91.60
2023-01-06T11:27:03.454Z,91.80
2023-01-06T11:29:36.440Z,91.70
2023-01-06T11:32:18.730Z,91.90
2023-01-06T11:34:56.744Z,91.80
2023-01-06T11:37:38.993Z,92.00
2023-01-06T11:40:22.148Z,92.00
2023-01-06T11:42:54.519Z,92.00
2023-01-06T11:45:35.800Z,91.40
2023-01-06T11:48:16.908Z,91.50
2023-01-06T11:50:58.651Z,91.40
2023-01-06T11:53:31.025Z,91.30
2023-01-06T11:56:03.688Z,91.30
2023-01-06T11:58:54.725Z,91.40
2023-01-06T12:01:32.737Z,91.50
2023-01-06T12:04:15.731Z,91.30
2023-01-06T12:06:48.422Z,91.30
2023-01-06T12:09:24.746Z,90.90
2023-01-06T12:11:58.127Z,91.10
2023-01-06T12:14:33.633Z,90.80
2023-01-06T12:17:11.280Z,91.10
2023-01-06T12:19:50.501Z,90.60
2023-01-06T12:22:26.879Z,90.40
2023-01-06T12:25:00.634Z,90.60
2023-01-06T12:27:37.726Z,90.70
2023-01-06T12:30:17.897Z,90.70
2023-01-06T12:32:53.054Z,90.90
2023-01-06T12:35:30.420Z,91.20
2023-01-06T12:38:06.950Z,90.90
2023-01-06T12:40:43.246Z,90.90
2023-01-06T12:43:19.738Z,91.00
2023-01-06T12:45:59.837Z,91.20
2023-01-06T12:48:40.305Z,91.30
2023-01-06T12:51:20.931Z,91.10
2023-01-06T12:53:59.088Z,91.10
2023-01-06T12:56:46.370Z,91.10
2023-01-06T12:59:29.876Z,91.20
2023-01-06T13:02:14.604Z,90.70
2023-01-06T13:05:06.540Z,90.80
2023-01-06T13:07:47.919Z,90.80
2023-01-06T13:10:34.011Z,91.00
2023-01-06T13:13:33.166Z,91.50
2023-01-06T13:16:12.370Z,90.90
2023-01-06T13:18:55.373Z,90.70
2023-01-06T13:21:27.484Z,91.20
2023-01-06T13:24:15.371Z,91.30
2023-01-06T13:27:13.334Z,91.40
2023-01-06T13:29:56.427Z,91.10
2023-01-06T13:32:45.526Z,91.00
2023-01-06T13:35:39.829Z,91.00
2023-01-06T13:38:29.384Z,91.30
2023-01-06T13:41:06.687Z,91.40
2023-01-06T13:43:38.985Z,91.50
2023-01-06T13:46:14.170Z,91.50
2023-01-06T13:48:48.638Z,91.30
2023-01-06T13:51:22.949Z,91.20
2023-01-06T13:53:55.021Z,91.30
2023-01-06T13:56:34.566Z,91.30
2023-01-06T13:59:23.965Z,91.40
2023-01-06T14:01:59.981Z,91.50
2023-01-06T14:04:50.480Z,91.90
2023-01-06T14:07:38.558Z,91.40
2023-01-06T14:10:35.857Z,91.60
2023-01-06T14:13:22.816Z,91.50
2023-01-06T14:15:58.608Z,91.90
2023-01-06T14:18:44.978Z,92.10
2023-01-06T14:21:23.692Z,92.30
2023-01-06T14:24:00.666Z,92.20
2023-01-06T14:26:58.577Z,92.10
2023-01-06T14:30:03.992Z,92.10
2023-01-06T14:33:13.862Z,92.20
2023-01-06T14:35:47.911Z,92.00
2023-01-06T14:38:28.034Z,91.90
2023-01-06T14:41:02.725Z,92.00
2023-01-06T14:43:44.454Z,92.10
2023-01-06T14:46:23.459Z,92.10
2023-01-06T14:49:00.691Z,92.20
2023-01-06T14:51:34.597Z,92.10
2023-01-06T14:54:09.952Z,92.00
2023-01-06T14:56:41.103Z,92.00
2023-01-06T14:59:15.834Z,92.00
2023-01-06T15:02:00.440Z,92.00
2023-01-06T15:04:36.887Z,92.30
2023-01-06T15:07:20.960Z,92.40
2023-01-06T15:09:53.462Z,92.40
2023-01-06T15:12:35.204Z,92.10
2023-01-06T15:15:19.203Z,92.40
2023-01-06T15:17:53.704Z,92.70
2023-01-06T15:20:34.181Z,92.80
2023-01-06T15:23:05.753Z,93.00
2023-01-06T15:25:40.880Z,92.80
2023-01-06T15:28:27.444Z,92.80
2023-01-06T15:30:58.590Z,92.90
2023-01-06T15:33:44.700Z,93.00
2023-01-06T15:36:22.399Z,93.30
2023-01-06T15:38:54.761Z,93.40
2023-01-06T15:41:39.099Z,93.20
2023-01-06T15:44:25.914Z,93.10
2023-01-06T15:47:00.110Z,93.00
2023-01-06T15:49:38.044Z,93.00
2023-01-06T15:52:10.848Z,93.10
2023-01-06T15:54:46.867Z,93.20
2023-01-06T15:57:18.316Z,93.10
2023-01-06T15:59:57.936Z,93.00
2023-01-06T16:02:32.495Z,93.10
2023-01-06T16:05:07.377Z,93.20
2023-01-06T16:07:43.464Z,93.20
2023-01-06T16:10:33.921Z,93.20
2023-01-06T16:13:24.233Z,93.60
2023-01-06T16:15:56.738Z,93.40
2023-01-06T16:18:33.750Z,93.50
2023-01-06T16:21:18.907Z,93.60
2023-01-06T16:23:54.177Z,93.70
2023-01-06T16:26:28.658Z,93.90
2023-01-06T16:29:01.290Z,93.90
2023-01-06T16:31:35.063Z,93.80
2023-01-06T16:34:28.660Z,93.90
2023-01-06T16:37:04.414Z,93.80
2023-01-06T16:39:35.290Z,93.90
2023-01-06T16:42:37.123Z,93.90
2023-01-06T16:45:13.367Z,94.00
2023-01-06T16:47:45.302Z,94.00
2023-01-06T16:50:34.351Z,94.10
2023-01-06T16:53:21.468Z,94.30
2023-01-06T16:55:55.313Z,94.20
2023-01-06T16:58:27.672Z,94.40
2023-01-06T17:01:02.727Z,94.30
2023-01-06T17:03:39.835Z,94.30
2023-01-06T17:06:16.623Z,94.20
2023-01-06T17:08:50.811Z,94.30
2023-01-06T17:11:24.424Z,94.10
2023-01-06T17:13:58.899Z,94.00
2023-01-06T17:16:35.457Z,93.90
2023-01-06T17:19:17.672Z,93.90
2023-01-06T17:21:49.183Z,94.10
2023-01-06T17:24:24.669Z,94.10
2023-01-06T17:26:58.347Z,94.30
2023-01-06T17:29:32.398Z,94.40
2023-01-06T17:32:05.881Z,94.30
2023-01-06T17:34:39.911Z,94.30
2023-01-06T17:37:18.058Z,94.20
2023-01-06T17:39:52.257Z,94.10
2023-01-06T17:42:32.523Z,94.10
2023-01-06T17:45:03.737Z,94.10
2023-01-06T17:47:48.240Z,93.90
2023-01-06T17:50:30.831Z,93.80
2023-01-06T17:53:32.941Z,93.80
2023-01-06T17:56:08.992Z,93.90
2023-01-06T17:58:41.642Z,93.90
2023-01-06T18:01:17.249Z,93.90
2023-01-06T18:03:49.532Z,93.90
2023-01-06T18:06:30.709Z,94.00
2023-01-06T18:09:13.490Z,94.00
2023-01-06T18:11:50.946Z,94.00
2023-01-06T18:14:28.058Z,94.00
2023-01-06T18:17:02.569Z,94.00
2023-01-06T18:19:37.766Z,94.10
2023-01-06T18:22:20.202Z,94.30
2023-01-06T18:24:53.254Z,94.20
2023-01-06T18:27:30.048Z,94.00
2023-01-06T18:30:21.256Z,94.00
2023-01-06T18:32:54.884Z,94.20
2023-01-06T18:35:29.077Z,94.10
2023-01-06T18:38:05.587Z,94.30
2023-01-06T18:40:36.549Z,94.30
2023-01-06T18:43:23.052Z,94.30
2023-01-06T18:45:56.897Z,94.30
2023-01-06T18:48:33.367Z,94.40
2023-01-06T18:51:06.027Z,94.40
2023-01-06T18:53:43.439Z,94.40
2023-01-06T18:56:21.237Z,94.40
2023-01-06T18:58:57.589Z,94.60
2023-01-06T19:01:33.498Z,94.80
2023-01-06T19:04:08.138Z,94.80
2023-01-06T19:06:48.476Z,95.00
2023-01-06T19:09:31.835Z,95.00
2023-01-06T19:12:22.454Z,95.10
2023-01-06T19:14:57.836Z,95.30
2023-01-06T19:17:33.000Z,95.50
2023-01-06T19:20:13.798Z,95.80
2023-01-06T19:22:44.865Z,95.90
2023-01-06T19:25:29.388Z,96.20
2023-01-06T19:28:02.167Z,96.40
2023-01-06T19:30:47.949Z,96.60
2023-01-06T19:33:30.151Z,96.70
2023-01-06T19:36:22.543Z,96.90
2023-01-06T19:38:54.240Z,97.00
2023-01-06T19:41:29.881Z,97.30
2023-01-06T19:44:12.155Z,97.40
2023-01-06T19:46:48.925Z,97.50
2023-01-06T19:49:22.530Z,97.60
2023-01-06T19:51:56.797Z,97.70
2023-01-06T19:54:31.167Z,97.80
2023-01-06T19:57:04.117Z,97.70
2023-01-06T19:59:38.337Z,97.90
2023-01-06T20:02:28.835Z,98.00
2023-01-06T20:05:00.806Z,98.20
2023-01-06T20:07:32.820Z,97.90
2023-01-06T20:10:04.067Z,98.00
2023-01-06T20:12:35.524Z,98.00
2023-01-06T20:15:08.019Z,98.10
2023-01-06T20:17:42.389Z,98.10
2023-01-06T20:20:14.679Z,98.20
2023-01-06T20:22:47.270Z,98.30
2023-01-06T20:25:19.346Z,98.60
2023-01-06T20:27:50.574Z,98.40
2023-01-06T20:30:22.401Z,98.40
2023-01-06T20:32:56.401Z,98.40
2023-01-06T20:35:28.088Z,98.30
2023-01-06T20:38:00.308Z,98.30
2023-01-06T20:40:31.750Z,98.50
2023-01-06T20:43:03.271Z,98.60
2023-01-06T20:45:34.978Z,98.60
2023-01-06T20:48:10.285Z,98.60
2023-01-06T20:50:43.136Z,99.10
2023-01-06T20:53:15.244Z,99.00
2023-01-06T20:55:46.657Z,98.70
2023-01-06T20:58:21.202Z,98.70
2023-01-06T21:00:53.456Z,98.50
2023-01-06T21:03:28.752Z,98.50
2023-01-06T21:06:00.242Z,98.30
2023-01-06T21:08:37.956Z,98.40
2023-01-06T21:11:09.306Z,98.40
2023-01-06T21:13:40.553Z,98.50
2023-01-06T21:16:11.906Z,98.50
2023-01-06T21:18:46.384Z,98.80
2023-01-06T21:21:18.070Z,98.80
2023-01-06T21:23:50.304Z,98.90
2023-01-06T21:26:21.770Z,99.10
2023-01-06T21:28:53.546Z,99.20
2023-01-06T21:31:25.377Z,99.30
2023-01-06T21:34:00.019Z,99.40
2023-01-06T21:36:31.101Z,99.50
2023-01-06T21:39:02.807Z,99.60
2023-01-06T21:41:48.286Z,99.60
2023-01-06T21:44:19.804Z,99.70
2023-01-06T21:46:51.529Z,99.80
2023-01-06T21:49:25.674Z,99.80
2023-01-06T21:52:00.625Z,99.90
2023-01-06T21:54:33.534Z,99.90
2023-01-06T21:57:05.634Z,99.90
2023-01-06T21:59:37.530Z,99.90
2023-01-06T22:02:09.220Z,99.90
2023-01-06T22:04:44.305Z,99.90
2023-01-06T22:07:17.048Z,99.90
2023-01-06T22:09:49.345Z,99.80
2023-01-06T22:12:21.819Z,99.80
2023-01-06T22:14:57.105Z,99.90
2023-01-06T22:17:29.086Z,99.90
2023-01-06T22:20:03.190Z,99.90
2023-01-06T22:22:37.225Z,99.90
2023-01-06T22:25:10.719Z,99.90
2023-01-06T22:27:43.871Z,99.80
2023-01-06T22:30:15.959Z,99.80
2023-01-06T22:32:48.088Z,99.80
2023-01-06T22:35:22.340Z,99.70
2023-01-06T22:37:53.914Z,99.80
2023-01-06T22:40:26.282Z,99.80
2023-01-06T22:42:58.969Z,99.80
2023-01-06T22:45:30.594Z,99.80
2023-01-06T22:48:02.145Z,99.80
2023-01-06T22:50:36.381Z,99.80
2023-01-06T22:53:07.718Z,99.80
2023-01-06T22:55:39.385Z,99.80
2023-01-06T22:58:11.181Z,99.90
2023-01-06T23:00:42.518Z,99.90
2023-01-06T23:03:14.116Z,99.70
2023-01-06T23:05:57.914Z,99.70
2023-01-06T23:08:30.958Z,99.70
2023-01-06T23:11:03.912Z,99.70
2023-01-06T23:13:35.245Z,99.70
2023-01-06T23:16:09.869Z,99.80
2023-01-06T23:18:43.065Z,99.70
2023-01-06T23:21:21.902Z,99.90
2023-01-06T23:23:54.818Z,99.90
2023-01-06T23:26:29.236Z,99.90
2023-01-06T23:29:01.254Z,99.80
2023-01-06T23:31:35.625Z,99.90
2023-01-06T23:34:09.991Z,99.90
2023-01-06T23:36:44.942Z,99.90
2023-01-06T23:39:17.768Z,99.90
2023-01-06T23:41:50.136Z,99.90
2023-01-06T23:44:22.708Z,99.90
2023-01-06T23:46:54.568Z,99.90
2023-01-06T23:49:26.253Z,99.90
2023-01-06T23:52:00.603Z,99.90
2023-01-06T23:54:32.586Z,99.80
2023-01-06T23:57:04.197Z,99.70
2023-01-06T23:59:35.583Z,99.70
